createdAt,value
2018-04-18T00:01:41.270Z,7.20
2018-04-18T00:04:10.936Z,7.90
2018-04-18T00:06:40.382Z,7.10
2018-04-18T00:09:09.632Z,7.50
2018-04-18T00:11:39.188Z,7.90
2018-04-18T00:14:08.630Z,7.30
2018-04-18T00:16:37.990Z,7.53
2018-04-18T00:19:08.117Z,8.57
2018-04-18T00:21:37.463Z,7.80
2018-04-18T00:24:07.793Z,7.73
2018-04-18T00:26:37.116Z,8.07
2018-04-18T00:29:06.456Z,8.73
2018-04-18T00:31:35.358Z,7.37
2018-04-18T00:34:04.501Z,9.85
2018-04-18T00:36:34.050Z,9.30
2018-04-18T00:39:02.730Z,9.00
2018-04-18T00:41:31.413Z,7.67
2018-04-18T00:44:00.015Z,7.20
2018-04-18T00:46:28.321Z,7.77
2018-04-18T00:48:56.648Z,7.97
2018-04-18T00:51:25.715Z,8.57
2018-04-18T00:53:54.010Z,9.37
2018-04-18T00:56:22.434Z,8.30
2018-04-18T00:58:51.653Z,8.15
2018-04-18T01:01:20.730Z,9.17
2018-04-18T01:03:49.280Z,8.73
2018-04-18T01:06:18.444Z,7.77
2018-04-18T01:08:47.216Z,9.95
2018-04-18T01:11:16.548Z,9.60
2018-04-18T01:13:45.344Z,9.40
2018-04-18T01:16:13.996Z,8.80
2018-04-18T01:18:42.854Z,8.57
2018-04-18T01:21:12.101Z,8.77
2018-04-18T01:23:41.383Z,9.30
2018-04-18T01:26:10.627Z,8.70
2018-04-18T01:28:39.865Z,9.30
2018-04-18T01:31:11.101Z,9.30
2018-04-18T01:33:40.446Z,10.30
2018-04-18T01:36:09.829Z,9.80
2018-04-18T01:38:38.819Z,12.93
2018-04-18T01:41:09.176Z,10.73
2018-04-18T01:43:38.539Z,11.80
2018-04-18T01:46:07.937Z,11.20
2018-04-18T01:48:37.232Z,9.77
2018-04-18T01:51:07.770Z,12.87
2018-04-18T01:53:37.164Z,10.73
2018-04-18T01:56:06.801Z,9.50
2018-04-18T01:58:35.930Z,9.90
2018-04-18T02:01:05.954Z,9.13
2018-04-18T02:03:34.520Z,8.90
2018-04-18T02:06:03.565Z,9.13
2018-04-18T02:08:32.265Z,9.33
2018-04-18T02:11:00.649Z,10.30
2018-04-18T02:13:28.957Z,10.23
2018-04-18T02:15:57.361Z,10.07
2018-04-18T02:18:25.679Z,10.57
2018-04-18T02:20:53.989Z,10.00
2018-04-18T02:23:23.094Z,8.37
2018-04-18T02:25:52.178Z,10.70
2018-04-18T02:28:20.841Z,9.20
2018-04-18T02:30:49.173Z,8.57
2018-04-18T02:33:19.589Z,9.17
2018-04-18T02:35:47.981Z,8.90
2018-04-18T02:38:16.460Z,9.27
2018-04-18T02:40:45.442Z,9.90
2018-04-18T02:43:14.894Z,10.20
2018-04-18T02:45:43.852Z,8.70
2018-04-18T02:48:13.629Z,10.73
2018-04-18T02:50:42.795Z,9.50
2018-04-18T02:53:11.707Z,9.50
2018-04-18T02:55:41.180Z,9.27
2018-04-18T02:58:11.243Z,12.40
2018-04-18T03:00:40.779Z,10.60
2018-04-18T03:03:10.593Z,9.80
2018-04-18T03:05:40.296Z,10.07
2018-04-18T03:08:09.904Z,10.53
2018-04-18T03:10:39.232Z,10.40
2018-04-18T03:13:08.496Z,10.17
2018-04-18T03:15:38.084Z,11.33
2018-04-18T03:18:08.029Z,10.03
2018-04-18T03:20:38.837Z,8.60
2018-04-18T03:23:08.505Z,10.57
2018-04-18T03:25:38.152Z,9.80
2018-04-18T03:28:07.707Z,10.17
2018-04-18T03:30:37.112Z,10.03
2018-04-18T03:33:07.429Z,10.30
2018-04-18T03:35:37.512Z,12.77
2018-04-18T03:38:07.425Z,10.80
2018-04-18T03:40:36.949Z,11.95
2018-04-18T03:43:06.550Z,11.30
2018-04-18T03:45:36.242Z,10.53
2018-04-18T03:48:06.304Z,11.97
2018-04-18T03:50:35.007Z,12.68
2018-04-18T03:53:04.172Z,11.23
2018-04-18T03:55:32.749Z,10.30
2018-04-18T03:58:01.520Z,9.43
2018-04-18T04:00:29.964Z,9.30
2018-04-18T04:02:58.351Z,11.20
2018-04-18T04:05:26.777Z,10.20
2018-04-18T04:07:55.935Z,10.37
2018-04-18T04:10:24.297Z,10.73
2018-04-18T04:12:52.624Z,9.80
2018-04-18T04:15:21.025Z,10.50
2018-04-18T04:18:01.835Z,9.97
2018-04-18T04:20:42.303Z,9.93
2018-04-18T04:23:22.375Z,10.57
2018-04-18T04:25:52.726Z,12.30
2018-04-18T04:28:21.085Z,10.77
2018-04-18T04:30:49.467Z,11.10
2018-04-18T04:33:18.049Z,9.60
2018-04-18T04:35:46.640Z,9.93
2018-04-18T04:38:16.088Z,10.10
2018-04-18T04:40:45.038Z,10.10
2018-04-18T04:43:13.976Z,11.53
2018-04-18T04:45:42.867Z,10.10
2018-04-18T04:48:12.730Z,10.57
2018-04-18T04:50:42.637Z,10.13
2018-04-18T04:53:11.338Z,10.43
2018-04-18T04:55:40.551Z,9.90
2018-04-18T04:58:09.855Z,10.67
2018-04-18T05:00:40.166Z,10.93
2018-04-18T05:03:09.594Z,10.80
2018-04-18T05:05:39.578Z,13.10
2018-04-18T05:08:08.998Z,12.70
2018-04-18T05:10:38.518Z,12.30
2018-04-18T05:13:08.728Z,12.10
2018-04-18T05:15:38.552Z,15.20
2018-04-18T05:18:08.509Z,14.00
2018-04-18T05:20:37.942Z,13.03
2018-04-18T05:23:06.782Z,11.70
2018-04-18T05:25:35.512Z,13.07
2018-04-18T05:28:05.224Z,10.70
2018-04-18T05:30:33.678Z,12.53
2018-04-18T05:33:02.158Z,13.17
2018-04-18T05:35:30.609Z,13.17
2018-04-18T05:37:59.157Z,13.27
2018-04-18T05:40:27.843Z,11.83
2018-04-18T05:42:56.635Z,12.20
2018-04-18T05:45:25.983Z,11.47
2018-04-18T05:47:54.776Z,13.20
2018-04-18T05:50:23.507Z,12.90
2018-04-18T05:52:52.808Z,13.27
2018-04-18T05:55:21.237Z,13.80
2018-04-18T05:57:50.780Z,12.77
2018-04-18T06:00:19.965Z,13.57
2018-04-18T06:02:48.548Z,13.90
2018-04-18T06:05:17.199Z,12.27
2018-04-18T06:07:46.715Z,12.70
2018-04-18T06:10:15.617Z,16.17
2018-04-18T06:12:44.448Z,14.70
2018-04-18T06:15:13.403Z,14.13
2018-04-18T06:17:42.447Z,13.73
2018-04-18T06:20:11.659Z,16.58
2018-04-18T06:22:41.616Z,12.70
2018-04-18T06:25:10.818Z,11.77
2018-04-18T06:27:40.258Z,10.90
2018-04-18T06:30:09.369Z,11.27
2018-04-18T06:32:38.785Z,10.83
2018-04-18T06:35:08.050Z,12.07
2018-04-18T06:37:39.068Z,11.10
2018-04-18T06:40:10.029Z,10.70
2018-04-18T06:42:39.339Z,12.10
2018-04-18T06:45:09.113Z,11.20
2018-04-18T06:47:38.419Z,11.60
2018-04-18T06:50:07.935Z,12.70
2018-04-18T06:52:38.190Z,12.40
2018-04-18T06:55:07.548Z,12.93
2018-04-18T06:57:37.650Z,10.90
2018-04-18T07:00:07.135Z,10.57
2018-04-18T07:02:36.849Z,9.43
2018-04-18T07:05:06.917Z,8.93
2018-04-18T07:07:36.176Z,8.70
2018-04-18T07:10:05.301Z,6.70
2018-04-18T07:12:34.043Z,7.37
2018-04-18T07:15:02.741Z,5.32
2018-04-18T07:17:31.361Z,4.93
2018-04-18T07:19:59.714Z,5.20
2018-04-18T07:22:28.048Z,5.80
2018-04-18T07:24:56.395Z,6.40
2018-04-18T07:27:24.776Z,5.68
2018-04-18T07:29:53.175Z,4.90
2018-04-18T07:32:21.719Z,5.57
2018-04-18T07:34:50.523Z,4.60
2018-04-18T07:37:18.880Z,3.67
2018-04-18T07:39:48.269Z,4.00
2018-04-18T07:42:17.007Z,4.40
2018-04-18T07:44:46.055Z,3.83
2018-04-18T07:47:14.694Z,4.20
2018-04-18T07:49:43.271Z,3.77
2018-04-18T07:52:12.040Z,4.33
2018-04-18T07:54:41.170Z,3.63
2018-04-18T07:57:10.329Z,3.63
2018-04-18T07:59:40.337Z,3.43
2018-04-18T08:02:09.263Z,2.93
2018-04-18T08:04:39.044Z,2.70
2018-04-18T08:07:10.114Z,3.47
2018-04-18T08:09:39.531Z,2.67
2018-04-18T08:12:08.655Z,3.23
2018-04-18T08:14:38.820Z,2.70
2018-04-18T08:17:08.483Z,4.13
2018-04-18T08:19:38.104Z,3.03
2018-04-18T08:22:07.292Z,3.10
2018-04-18T08:24:36.292Z,3.03
2018-04-18T08:27:06.612Z,3.27
2018-04-18T08:29:35.218Z,3.57
2018-04-18T08:32:03.688Z,3.20
2018-04-18T08:34:32.029Z,2.70
2018-04-18T08:37:00.333Z,2.77
2018-04-18T08:39:28.656Z,3.80
2018-04-18T08:41:57.803Z,3.07
2018-04-18T08:44:27.641Z,3.47
2018-04-18T08:46:56.572Z,2.50
2018-04-18T08:49:25.440Z,2.73
2018-04-18T08:51:54.591Z,2.33
2018-04-18T08:54:22.984Z,2.87
2018-04-18T08:56:52.238Z,2.83
2018-04-18T08:59:20.584Z,2.30
2018-04-18T09:01:49.800Z,2.73
2018-04-18T09:04:18.129Z,2.70
2018-04-18T09:06:47.138Z,3.10
2018-04-18T09:09:15.956Z,3.53
2018-04-18T09:11:44.681Z,3.20
2018-04-18T09:14:13.378Z,3.13
2018-04-18T09:16:42.355Z,4.10
2018-04-18T09:19:12.030Z,3.30
2018-04-18T09:21:41.764Z,3.50
2018-04-18T09:24:10.458Z,3.53
2018-04-18T09:26:39.285Z,3.10
2018-04-18T09:29:08.125Z,3.00
2018-04-18T09:31:37.632Z,2.90
2018-04-18T09:34:07.565Z,3.50
2018-04-18T09:36:38.091Z,4.13
2018-04-18T09:39:07.445Z,2.97
2018-04-18T09:41:37.181Z,3.00
2018-04-18T09:44:06.360Z,2.60
2018-04-18T09:46:35.894Z,3.57
2018-04-18T09:49:05.353Z,3.73
2018-04-18T09:51:34.144Z,3.17
2018-04-18T09:54:02.745Z,3.50
2018-04-18T09:56:31.849Z,2.87
2018-04-18T09:59:00.960Z,4.00
2018-04-18T10:01:36.782Z,2.83
2018-04-18T10:04:10.617Z,3.10
2018-04-18T10:06:39.247Z,3.90
2018-04-18T10:09:08.748Z,4.03
2018-04-18T10:11:37.950Z,3.67
2018-04-18T10:14:07.361Z,4.50
2018-04-18T10:16:37.205Z,2.93
2018-04-18T10:19:07.219Z,3.30
2018-04-18T10:21:36.176Z,3.70
2018-04-18T10:24:05.051Z,3.83
2018-04-18T10:26:33.667Z,4.40
2018-04-18T10:29:02.124Z,4.53
2018-04-18T10:31:31.493Z,5.40
2018-04-18T10:33:59.842Z,6.40
2018-04-18T10:36:29.005Z,5.00
2018-04-18T10:38:57.380Z,5.40
2018-04-18T10:41:25.700Z,5.00
2018-04-18T10:43:54.082Z,4.93
2018-04-18T10:46:22.612Z,5.27
2018-04-18T10:48:51.086Z,4.40
2018-04-18T10:51:20.402Z,4.63
2018-04-18T10:53:49.137Z,4.27
2018-04-18T10:56:17.750Z,4.00
2018-04-18T10:58:46.977Z,4.83
2018-04-18T11:01:15.804Z,4.80
2018-04-18T11:03:44.508Z,4.33
2018-04-18T11:06:13.280Z,4.77
2018-04-18T11:08:42.943Z,4.00
2018-04-18T11:11:11.898Z,3.57
2018-04-18T11:13:42.999Z,3.80
2018-04-18T11:16:12.118Z,3.90
2018-04-18T11:18:41.137Z,3.93
2018-04-18T11:21:09.860Z,3.73
2018-04-18T11:23:38.870Z,3.37
2018-04-18T11:26:07.761Z,3.17
2018-04-18T11:28:39.229Z,3.20
2018-04-18T11:31:08.039Z,3.50
2018-04-18T11:33:36.750Z,3.40
2018-04-18T11:36:05.881Z,3.97
2018-04-18T11:38:35.234Z,3.10
2018-04-18T11:41:03.549Z,2.87
2018-04-18T11:43:32.197Z,2.90
2018-04-18T11:46:00.538Z,2.60
2018-04-18T11:48:29.610Z,3.40
2018-04-18T11:50:57.923Z,2.63
2018-04-18T11:53:27.017Z,2.97
2018-04-18T11:55:55.373Z,3.10
2018-04-18T11:58:23.692Z,3.47
2018-04-18T12:00:52.023Z,2.47
2018-04-18T12:03:21.373Z,2.80
2018-04-18T12:05:49.712Z,2.40
2018-04-18T12:08:18.938Z,2.00
2018-04-18T12:10:48.233Z,2.20
2018-04-18T12:13:16.875Z,2.40
2018-04-18T12:15:45.682Z,2.10
2018-04-18T12:18:14.649Z,2.07
2018-04-18T12:20:43.917Z,2.87
2018-04-18T12:23:12.753Z,2.07
2018-04-18T12:25:42.289Z,1.93
2018-04-18T12:28:12.613Z,2.10
2018-04-18T12:30:41.326Z,2.90
2018-04-18T12:33:10.227Z,2.73
2018-04-18T12:35:39.663Z,2.80
2018-04-18T12:38:08.893Z,2.10
2018-04-18T12:40:38.055Z,2.30
2018-04-18T12:43:07.251Z,2.20
2018-04-18T12:45:37.689Z,2.37
2018-04-18T12:48:07.468Z,1.90
2018-04-18T12:50:38.305Z,2.43
2018-04-18T12:53:08.006Z,2.07
2018-04-18T12:55:37.847Z,2.60
2018-04-18T12:58:07.591Z,2.70
2018-04-18T13:00:37.062Z,3.07
2018-04-18T13:03:06.413Z,2.57
2018-04-18T13:05:35.427Z,2.60
2018-04-18T13:08:05.451Z,2.57
2018-04-18T13:10:34.260Z,2.30
2018-04-18T13:13:03.334Z,2.80
2018-04-18T13:15:32.573Z,2.53
2018-04-18T13:18:00.941Z,2.60
2018-04-18T13:20:30.107Z,2.87
2018-04-18T13:22:58.515Z,2.70
2018-04-18T13:25:27.618Z,2.40
2018-04-18T13:27:56.061Z,2.60
2018-04-18T13:30:24.387Z,2.87
2018-04-18T13:32:52.780Z,2.63
2018-04-18T13:35:21.101Z,2.70
2018-04-18T13:37:49.405Z,3.20
2018-04-18T13:40:17.752Z,2.67
2018-04-18T13:42:46.990Z,2.30
2018-04-18T13:45:15.729Z,2.63
2018-04-18T13:47:44.600Z,1.90
2018-04-18T13:50:14.351Z,4.20
2018-04-18T13:52:44.836Z,2.43
2018-04-18T13:55:14.384Z,2.40
2018-04-18T13:57:43.639Z,2.43
2018-04-18T14:00:12.956Z,2.57
2018-04-18T14:02:42.846Z,2.23
2018-04-18T14:05:12.174Z,2.40
2018-04-18T14:07:41.736Z,2.23
2018-04-18T14:10:11.224Z,2.13
2018-04-18T14:12:40.982Z,2.20
2018-04-18T14:15:09.433Z,2.10
2018-04-18T14:17:38.944Z,2.20
2018-04-18T14:20:10.456Z,2.50
2018-04-18T14:22:40.945Z,2.27
2018-04-18T14:25:10.774Z,2.03
2018-04-18T14:27:40.412Z,3.23
2018-04-18T14:30:10.885Z,2.50
2018-04-18T14:32:41.573Z,2.33
2018-04-18T14:35:12.003Z,2.47
2018-04-18T14:37:42.275Z,2.40
2018-04-18T14:40:12.950Z,2.87
2018-04-18T14:42:43.038Z,2.67
2018-04-18T14:45:12.981Z,2.33
2018-04-18T14:47:42.786Z,2.80
2018-04-18T14:50:14.368Z,2.60
2018-04-18T14:52:45.641Z,2.03
2018-04-18T14:55:16.439Z,1.93
2018-04-18T14:57:46.164Z,2.50
2018-04-18T15:00:17.150Z,2.80
2018-04-18T15:02:46.995Z,2.20
2018-04-18T15:05:16.340Z,2.50
2018-04-18T15:07:46.380Z,2.60
2018-04-18T15:10:16.152Z,2.40
2018-04-18T15:12:47.546Z,3.13
2018-04-18T15:15:16.818Z,2.63
2018-04-18T15:17:48.609Z,2.40
2018-04-18T15:20:18.284Z,2.53
2018-04-18T15:22:47.768Z,3.00
2018-04-18T15:25:17.401Z,2.07
2018-04-18T15:27:48.127Z,1.90
2018-04-18T15:30:17.720Z,2.50
2018-04-18T15:32:48.040Z,2.77
2018-04-18T15:35:17.941Z,2.60
2018-04-18T15:37:47.421Z,2.53
2018-04-18T15:40:18.563Z,2.20
2018-04-18T15:42:49.772Z,4.40
2018-04-18T15:45:18.751Z,2.93
2018-04-18T15:47:47.307Z,2.60
2018-04-18T15:50:16.584Z,2.43
2018-04-18T15:52:46.895Z,2.30
2018-04-18T15:55:17.085Z,3.07
2018-04-18T15:57:47.384Z,2.63
2018-04-18T16:00:17.435Z,2.97
2018-04-18T16:02:46.603Z,2.50
2018-04-18T16:05:17.012Z,2.50
2018-04-18T16:07:47.777Z,2.20
2018-04-18T16:10:17.022Z,2.30
2018-04-18T16:12:47.858Z,2.50
2018-04-18T16:15:17.478Z,2.10
2018-04-18T16:17:46.810Z,2.10
2018-04-18T16:20:17.083Z,2.57
2018-04-18T16:22:46.251Z,2.13
2018-04-18T16:25:16.142Z,2.43
2018-04-18T16:27:47.471Z,2.17
2018-04-18T16:30:29.121Z,4.70
2018-04-18T16:32:57.574Z,2.93
2018-04-18T16:35:25.933Z,2.50
2018-04-18T16:37:54.306Z,2.03
2018-04-18T16:40:22.644Z,2.00
2018-04-18T16:42:51.817Z,2.10
2018-04-18T16:45:20.258Z,2.50
2018-04-18T16:47:49.706Z,2.97
2018-04-18T16:50:18.668Z,2.47
2018-04-18T16:52:47.853Z,1.93
2018-04-18T16:55:17.689Z,1.97
2018-04-18T16:57:47.508Z,2.23
2018-04-18T17:00:17.163Z,1.90
2018-04-18T17:02:48.949Z,2.10
2018-04-18T17:05:18.609Z,2.10
2018-04-18T17:07:47.310Z,2.90
2018-04-18T17:10:16.312Z,2.43
2018-04-18T17:12:51.302Z,2.70
2018-04-18T17:15:20.097Z,2.63
2018-04-18T17:17:48.580Z,2.40
2018-04-18T17:20:17.762Z,2.03
2018-04-18T17:22:46.968Z,2.30
2018-04-18T17:25:16.156Z,2.60
2018-04-18T17:27:46.134Z,2.30
2018-04-18T17:30:17.172Z,2.30
2018-04-18T17:32:46.958Z,2.80
2018-04-18T17:35:18.109Z,2.80
2018-04-18T17:37:47.639Z,2.70
2018-04-18T17:40:17.010Z,2.60
2018-04-18T17:42:46.034Z,2.40
2018-04-18T17:45:15.647Z,2.43
2018-04-18T17:47:44.953Z,2.93
2018-04-18T17:50:14.527Z,3.20
2018-04-18T17:52:44.853Z,2.63
2018-04-18T17:55:15.048Z,2.40
2018-04-18T17:57:44.459Z,2.50
2018-04-18T18:00:13.822Z,2.90
2018-04-18T18:02:42.945Z,2.37
2018-04-18T18:05:12.747Z,2.93
2018-04-18T18:07:43.223Z,2.70
2018-04-18T18:10:12.365Z,2.40
2018-04-18T18:12:42.628Z,2.60
2018-04-18T18:15:12.289Z,2.97
2018-04-18T18:17:41.659Z,3.30
2018-04-18T18:20:11.293Z,4.10
2018-04-18T18:22:41.762Z,2.90
2018-04-18T18:25:11.851Z,3.70
2018-04-18T18:27:41.234Z,4.07
2018-04-18T18:30:11.431Z,3.20
2018-04-18T18:32:40.527Z,3.43
2018-04-18T18:35:10.962Z,3.10
2018-04-18T18:37:39.943Z,3.17
2018-04-18T18:40:08.790Z,4.27
2018-04-18T18:42:37.700Z,3.67
2018-04-18T18:45:07.353Z,2.80
2018-04-18T18:47:36.880Z,3.50
2018-04-18T18:50:05.830Z,3.47
2018-04-18T18:52:34.791Z,3.78
2018-04-18T18:55:03.325Z,4.07
2018-04-18T18:57:32.520Z,3.77
2018-04-18T19:00:00.884Z,3.07
2018-04-18T19:02:29.293Z,3.00
2018-04-18T19:04:57.628Z,3.90
2018-04-18T19:07:26.690Z,3.10
2018-04-18T19:09:54.997Z,3.73
2018-04-18T19:12:23.673Z,3.50
2018-04-18T19:14:54.007Z,3.00
2018-04-18T19:17:22.369Z,3.27
2018-04-18T19:19:51.525Z,3.13
2018-04-18T19:22:20.786Z,3.00
2018-04-18T19:24:49.154Z,3.10
2018-04-18T19:27:17.902Z,3.90
2018-04-18T19:29:46.853Z,4.00
2018-04-18T19:32:15.567Z,3.27
2018-04-18T19:34:45.119Z,3.60
2018-04-18T19:37:14.880Z,4.33
2018-04-18T19:39:43.975Z,3.93
2018-04-18T19:42:12.922Z,3.73
2018-04-18T19:44:43.914Z,2.97
2018-04-18T19:47:12.942Z,3.40
2018-04-18T19:49:41.976Z,4.20
2018-04-18T19:52:11.938Z,3.63
2018-04-18T19:54:40.816Z,3.50
2018-04-18T19:57:10.429Z,4.07
2018-04-18T19:59:39.690Z,3.30
2018-04-18T20:02:09.745Z,3.93
2018-04-18T20:04:38.889Z,4.25
2018-04-18T20:07:08.224Z,4.00
2018-04-18T20:09:37.075Z,3.30
2018-04-18T20:12:05.747Z,3.30
2018-04-18T20:14:34.166Z,4.00
2018-04-18T20:17:02.653Z,7.20
2018-04-18T20:19:31.185Z,13.93
2018-04-18T20:21:59.605Z,14.10
2018-04-18T20:24:28.721Z,9.30
2018-04-18T20:26:57.029Z,4.73
2018-04-18T20:29:25.346Z,3.93
2018-04-18T20:31:53.641Z,4.05
2018-04-18T20:34:22.045Z,3.13
2018-04-18T20:36:51.445Z,5.03
2018-04-18T20:39:19.792Z,4.30
2018-04-18T20:41:54.921Z,4.60
2018-04-18T20:44:24.001Z,4.33
2018-04-18T20:46:53.439Z,4.10
2018-04-18T20:49:21.851Z,4.70
2018-04-18T20:51:50.989Z,4.17
2018-04-18T20:54:19.341Z,4.23
2018-04-18T20:56:49.230Z,4.13
2018-04-18T20:59:17.763Z,4.33
2018-04-18T21:01:46.823Z,4.60
2018-04-18T21:04:15.977Z,5.23
2018-04-18T21:06:45.228Z,4.53
2018-04-18T21:09:14.137Z,4.47
2018-04-18T21:11:43.065Z,4.35
2018-04-18T21:14:12.029Z,4.33
2018-04-18T21:16:41.140Z,3.93
2018-04-18T21:19:10.366Z,3.80
2018-04-18T21:21:40.826Z,4.40
2018-04-18T21:24:09.895Z,6.30
2018-04-18T21:26:39.237Z,4.03
2018-04-18T21:29:08.529Z,4.57
2018-04-18T21:31:38.358Z,5.15
2018-04-18T21:34:08.471Z,4.80
2018-04-18T21:36:37.589Z,4.50
2018-04-18T21:39:06.717Z,5.33
2018-04-18T21:41:35.796Z,5.60
2018-04-18T21:44:05.802Z,5.57
2018-04-18T21:46:34.814Z,7.00
2018-04-18T21:49:03.508Z,4.87
2018-04-18T21:51:33.421Z,4.67
2018-04-18T21:54:01.897Z,5.53
2018-04-18T21:56:30.234Z,4.47
2018-04-18T21:58:58.621Z,4.60
2018-04-18T22:01:26.954Z,4.30
2018-04-18T22:03:55.279Z,5.00
2018-04-18T22:06:23.597Z,5.40
2018-04-18T22:08:52.003Z,5.30
2018-04-18T22:11:21.149Z,5.77
2018-04-18T22:13:49.978Z,5.20
2018-04-18T22:16:18.508Z,5.13
2018-04-18T22:18:48.156Z,5.07
2018-04-18T22:21:17.429Z,4.80
2018-04-18T22:23:46.131Z,6.13
2018-04-18T22:26:14.897Z,5.00
2018-04-18T22:28:44.721Z,5.23
2018-04-18T22:31:13.679Z,4.70
2018-04-18T22:33:42.474Z,5.63
2018-04-18T22:36:11.411Z,4.60
2018-04-18T22:38:40.324Z,5.40
2018-04-18T22:41:09.454Z,6.40
2018-04-18T22:43:39.469Z,5.37
2018-04-18T22:46:08.565Z,5.80
2018-04-18T22:48:37.410Z,5.60
2018-04-18T22:51:07.570Z,5.40
2018-04-18T22:53:37.271Z,5.70
2018-04-18T22:56:06.216Z,5.30
2018-04-18T22:58:34.945Z,6.30
2018-04-18T23:01:04.980Z,6.23
2018-04-18T23:03:34.320Z,6.27
2018-04-18T23:06:03.316Z,6.00
2018-04-18T23:08:31.704Z,6.60
2018-04-18T23:11:02.021Z,5.30
2018-04-18T23:13:30.401Z,6.78
2018-04-18T23:15:58.776Z,6.97
2018-04-18T23:18:27.869Z,5.53
2018-04-18T23:20:56.241Z,5.63
2018-04-18T23:23:24.537Z,6.67
2018-04-18T23:25:52.861Z,6.00
2018-04-18T23:28:22.856Z,6.53
2018-04-18T23:30:51.144Z,6.00
2018-04-18T23:33:19.784Z,6.43
2018-04-18T23:35:48.150Z,5.97
2018-04-18T23:38:16.870Z,6.63
2018-04-18T23:40:46.464Z,5.80
2018-04-18T23:43:15.324Z,7.20
2018-04-18T23:45:44.215Z,7.40
2018-04-18T23:48:13.262Z,7.43
2018-04-18T23:50:44.042Z,6.13
2018-04-18T23:53:12.876Z,6.27
2018-04-18T23:55:42.004Z,6.43
2018-04-18T23:58:11.522Z,6.60
